Time;durP1;ratioP1;P1;durP2;ratioP2;P2;SDS_P1;SDS_P2;PMS_P1;PMS_P2;Temp;Humidity;BMP_temperature;BMP_pressure;BME280_temperature;BME280_humidity;BME280_pressure;Samples;Min_cycle;Max_cycle;Signal;HPM_P1;HPM_P2
2022/01/30 00:00:56;;;;;;;;;42.00;36.67;;;;;;;;5290327;28;9489;-71
2022/01/30 00:03:27;;;;;;;;;28.75;27.00;;;;;;;;5272240;28;8800;-71
2022/01/30 00:05:58;;;;;;;;;28.80;25.80;;;;;;;;5256040;28;8838;-73
2022/01/30 00:08:30;;;;;;;;;23.00;22.50;;;;;;;;5272294;28;8804;-73
2022/01/30 00:11:23;;;;;;;;;26.75;26.75;;;;;;;;5272478;28;9634;-72
2022/01/30 00:13:54;;;;;;;;;30.00;28.00;;;;;;;;5272097;28;8803;-72
2022/01/30 00:16:30;;;;;;;;;28.67;28.67;;;;;;;;5271856;28;8785;-73
2022/01/30 00:19:18;;;;;;;;;33.00;31.25;;;;;;;;5238363;28;10297;-73
2022/01/30 00:22:00;;;;;;;;;29.75;27.75;;;;;;;;5272147;28;8780;-72
2022/01/30 00:24:45;;;;;;;;;25.75;25.75;;;;;;;;5289863;28;8773;-71
2022/01/30 00:27:20;;;;;;;;;22.00;21.00;;;;;;;;5238281;28;8788;-71
2022/01/30 00:29:52;;;;;;;;;14.50;8.00;;;;;;;;5238511;28;8808;-72
2022/01/30 00:32:23;;;;;;;;;40.50;36.50;;;;;;;;5271842;28;9511;-71
2022/01/30 00:34:54;;;;;;;;;47.00;42.67;;;;;;;;5237980;28;8807;-71
2022/01/30 00:37:25;;;;;;;;;55.67;51.00;;;;;;;;5271208;28;10209;-70
2022/01/30 00:39:59;;;;;;;;;51.50;47.50;;;;;;;;5254816;28;8872;-70
2022/01/30 00:42:30;;;;;;;;;51.25;46.25;;;;;;;;5238392;28;8808;-69
2022/01/30 00:45:19;;;;;;;;;32.00;30.75;;;;;;;;5274479;28;8785;-70
2022/01/30 00:47:50;;;;;;;;;32.00;31.75;;;;;;;;5254393;28;8800;-70
2022/01/30 00:50:22;;;;;;;;;34.75;32.00;;;;;;;;5271135;28;8835;-70
2022/01/30 00:52:55;;;;;;;;;39.00;38.00;;;;;;;;5271556;28;8784;-70
2022/01/30 00:55:27;;;;;;;;;32.00;31.00;;;;;;;;5237910;28;8788;-71
2022/01/30 00:57:59;;;;;;;;;34.25;33.25;;;;;;;;5289041;28;8768;-71
2022/01/30 01:00:31;;;;;;;;;40.00;37.00;;;;;;;;5254346;28;8792;-71
2022/01/30 01:03:03;;;;;;;;;34.00;33.00;;;;;;;;5254621;28;8789;-71
2022/01/30 01:05:35;;;;;;;;;38.00;35.75;;;;;;;;5270785;28;8773;-72
2022/01/30 01:08:34;;;;;;;;;44.33;44.33;;;;;;;;5254296;28;8819;-71
2022/01/30 01:11:14;;;;;;;;;49.25;45.00;;;;;;;;5253791;28;8812;-71
2022/01/30 01:25:31;;;;;;;;;20.75;20.25;;;;;;;;5289441;28;8757;-72
2022/01/30 01:28:02;;;;;;;;;11.75;11.75;;;;;;;;5237581;28;8973;-72
2022/01/30 01:30:34;;;;;;;;;24.25;22.50;;;;;;;;5271255;28;8834;-71
2022/01/30 01:33:06;;;;;;;;;28.00;27.50;;;;;;;;5237037;28;8791;-71
2022/01/30 01:35:37;;;;;;;;;14.75;14.50;;;;;;;;5271081;28;8799;-74
2022/01/30 01:38:11;;;;;;;;;26.50;23.75;;;;;;;;5253906;28;8760;-72
2022/01/30 01:40:51;;;;;;;;;20.00;19.00;;;;;;;;5236885;28;8811;-72
2022/01/30 01:43:23;;;;;;;;;10.00;9.50;;;;;;;;5253602;28;8769;-72
2022/01/30 01:45:56;;;;;;;;;21.25;18.75;;;;;;;;5270201;28;8761;-72
2022/01/30 01:48:33;;;;;;;;;19.00;19.00;;;;;;;;5253527;28;8784;-72
2022/01/30 01:51:15;;;;;;;;;27.00;27.00;;;;;;;;5253190;28;8773;-72
2022/01/30 01:53:47;;;;;;;;;28.25;25.00;;;;;;;;5270713;28;8949;-72
2022/01/30 01:56:18;;;;;;;;;35.75;35.25;;;;;;;;5270534;28;8788;-71
2022/01/30 01:58:55;;;;;;;;;26.50;25.50;;;;;;;;5237842;28;8784;-71
2022/01/30 02:01:58;;;;;;;;;29.00;29.00;;;;;;;;5257151;28;8931;-71
2022/01/30 02:04:30;;;;;;;;;36.75;36.75;;;;;;;;5253153;28;8791;-72
2022/01/30 02:08:05;;;;;;;;;20.00;17.50;;;;;;;;5288267;28;8764;-72
2022/01/30 02:09:52;;;;;;;;;36.25;33.50;;;;;;;;5242138;28;8816;-73
2022/01/30 02:12:32;;;;;;;;;30.50;28.00;;;;;;;;5270087;28;8772;-73
2022/01/30 02:26:21;;;;;;;;;48.50;41.50;;;;;;;;5269659;28;9576;-71
2022/01/30 02:28:54;;;;;;;;;34.25;34.25;;;;;;;;5253149;28;8796;-72
2022/01/30 02:31:26;;;;;;;;;38.00;36.75;;;;;;;;5252918;28;8789;-71
2022/01/30 02:34:15;;;;;;;;;39.00;37.25;;;;;;;;5270132;28;8756;-70
2022/01/30 02:36:51;;;;;;;;;30.67;29.67;;;;;;;;5253414;28;8797;-71
2022/01/30 02:39:22;;;;;;;;;37.00;33.25;;;;;;;;5253220;28;11455;-70
2022/01/30 02:41:54;;;;;;;;;26.33;24.67;;;;;;;;5253300;28;8831;-72
2022/01/30 02:44:36;;;;;;;;;6.00;3.60;;;;;;;;5269549;28;8779;-71
2022/01/30 02:47:10;;;;;;;;;12.40;11.60;;;;;;;;5253265;28;8780;-72
2022/01/30 02:50:06;;;;;;;;;11.20;11.20;;;;;;;;5269425;28;8812;-71
2022/01/30 02:52:36;;;;;;;;;13.40;13.40;;;;;;;;5269957;28;8772;-72
2022/01/30 02:55:09;;;;;;;;;13.40;13.40;;;;;;;;5252519;28;8903;-71
2022/01/30 02:57:58;;;;;;;;;11.20;11.20;;;;;;;;5269333;28;8791;-71
2022/01/30 03:00:30;;;;;;;;;18.50;18.50;;;;;;;;5287551;28;8776;-69
2022/01/30 03:03:20;;;;;;;;;12.20;12.00;;;;;;;;5276207;28;8769;-71
2022/01/30 03:05:51;;;;;;;;;13.40;13.40;;;;;;;;5256801;28;8825;-70
2022/01/30 03:08:22;;;;;;;;;12.80;12.80;;;;;;;;5257572;28;8776;-70
2022/01/30 03:10:53;;;;;;;;;16.60;15.20;;;;;;;;5291507;28;8859;-72
2022/01/30 03:13:24;;;;;;;;;15.20;15.20;;;;;;;;5256535;28;8799;-72
2022/01/30 03:15:56;;;;;;;;;8.80;8.60;;;;;;;;5256135;28;8781;-72
2022/01/30 03:18:27;;;;;;;;;11.60;10.60;;;;;;;;5239563;28;8760;-71
2022/01/30 03:21:17;;;;;;;;;21.40;21.40;;;;;;;;5273374;28;8776;-70
2022/01/30 03:23:49;;;;;;;;;10.40;10.00;;;;;;;;5256088;28;8804;-70
2022/01/30 03:26:40;;;;;;;;;9.80;9.80;;;;;;;;5258844;28;8769;-70
2022/01/30 03:29:26;;;;;;;;;11.80;11.60;;;;;;;;5256342;28;8873;-71
2022/01/30 03:31:58;;;;;;;;;11.80;10.00;;;;;;;;5256199;28;8784;-70
2022/01/30 03:34:31;;;;;;;;;18.20;17.20;;;;;;;;5273081;28;8801;-70
2022/01/30 03:37:02;;;;;;;;;15.00;15.00;;;;;;;;5239286;28;8765;-70
2022/01/30 03:39:36;;;;;;;;;17.60;17.60;;;;;;;;5256343;28;8845;-70
2022/01/30 03:42:07;;;;;;;;;15.33;15.33;;;;;;;;5239066;28;9496;-70
2022/01/30 03:44:38;;;;;;;;;26.00;23.75;;;;;;;;5272739;28;11524;-71
2022/01/30 03:47:09;;;;;;;;;28.25;28.25;;;;;;;;5256175;28;8819;-72
2022/01/30 03:49:41;;;;;;;;;18.00;18.00;;;;;;;;5238930;28;8815;-71
2022/01/30 03:52:30;;;;;;;;;24.80;24.80;;;;;;;;5259112;28;8799;-70
2022/01/30 03:55:03;;;;;;;;;22.80;21.80;;;;;;;;5255519;28;8764;-72
2022/01/30 03:57:34;;;;;;;;;28.40;26.60;;;;;;;;5255259;28;8788;-72
2022/01/30 04:00:24;;;;;;;;;31.75;30.25;;;;;;;;5275256;28;8873;-71
2022/01/30 04:03:05;;;;;;;;;28.25;26.75;;;;;;;;5240868;28;8837;-73
2022/01/30 04:05:37;;;;;;;;;29.75;27.25;;;;;;;;5255772;28;8776;-69
2022/01/30 04:08:08;;;;;;;;;34.50;34.00;;;;;;;;5255828;28;8814;-69
2022/01/30 04:10:58;;;;;;;;;34.00;33.50;;;;;;;;5257934;28;8812;-68
2022/01/30 04:13:52;;;;;;;;;33.50;29.50;;;;;;;;5256400;28;8799;-69
2022/01/30 04:16:49;;;;;;;;;31.00;29.50;;;;;;;;5255410;28;8857;-68
2022/01/30 04:19:39;;;;;;;;;31.00;30.00;;;;;;;;5258283;28;8803;-71
2022/01/30 04:22:16;;;;;;;;;32.50;30.25;;;;;;;;5239311;28;8772;-68
2022/01/30 04:25:06;;;;;;;;;12.20;10.40;;;;;;;;5271747;28;8785;-70
2022/01/30 04:28:06;;;;;;;;;33.00;29.75;;;;;;;;5259329;28;8796;-68
2022/01/30 04:30:56;;;;;;;;;28.25;28.25;;;;;;;;5257339;28;8869;-70
2022/01/30 04:33:47;;;;;;;;;37.25;34.25;;;;;;;;5263651;28;8765;-73
2022/01/30 04:37:00;;;;;;;;;37.00;35.00;;;;;;;;5248202;28;9492;-72
2022/01/30 04:56:42;;;;;;;;;43.00;42.25;;;;;;;;5289666;28;8880;-73
2022/01/30 05:05:51;;;;;;;;;51.25;44.00;;;;;;;;5288670;28;8780;-75
2022/01/30 05:08:26;;;;;;;;;36.75;35.50;;;;;;;;5271346;28;8768;-73
2022/01/30 05:11:10;;;;;;;;;37.25;36.25;;;;;;;;5256368;28;8813;-71
2022/01/30 05:14:22;;;;;;;;;34.75;33.75;;;;;;;;5259421;28;8879;-71
2022/01/30 05:17:12;;;;;;;;;38.00;36.00;;;;;;;;5271786;28;8779;-74
2022/01/30 05:20:02;;;;;;;;;46.25;42.00;;;;;;;;5257383;28;9509;-72
2022/01/30 05:22:53;;;;;;;;;29.00;29.00;;;;;;;;5272147;28;8765;-73
2022/01/30 05:25:37;;;;;;;;;33.75;28.00;;;;;;;;5256879;28;9550;-73
2022/01/30 05:28:18;;;;;;;;;36.00;32.25;;;;;;;;5240611;28;8785;-71
2022/01/30 05:31:12;;;;;;;;;38.75;36.75;;;;;;;;5258162;28;8840;-72
2022/01/30 05:34:07;;;;;;;;;42.50;33.50;;;;;;;;5243047;28;8784;-73
2022/01/30 05:36:57;;;;;;;;;35.25;35.25;;;;;;;;5257902;28;8776;-71
2022/01/30 05:40:01;;;;;;;;;37.50;37.50;;;;;;;;5226642;28;8800;-72
2022/01/30 05:42:51;;;;;;;;;41.00;39.00;;;;;;;;5256883;28;8787;-73
2022/01/30 05:46:12;;;;;;;;;32.50;30.00;;;;;;;;5187531;28;8790;-72
2022/01/30 05:49:03;;;;;;;;;41.00;39.50;;;;;;;;5274370;28;8815;-74
2022/01/30 05:52:00;;;;;;;;;34.25;34.25;;;;;;;;5242450;28;8765;-75
2022/01/30 05:59:04;;;;;;;;;31.25;29.00;;;;;;;;5292211;28;8744;-74
2022/01/30 06:01:35;;;;;;;;;45.25;37.75;;;;;;;;5267558;28;8789;-74
2022/01/30 06:04:21;;;;;;;;;31.25;30.75;;;;;;;;5273574;28;8768;-74
2022/01/30 06:06:56;;;;;;;;;33.50;31.25;;;;;;;;5270646;28;8922;-74
2022/01/30 06:09:28;;;;;;;;;27.50;26.50;;;;;;;;5254395;28;8838;-74
2022/01/30 06:12:00;;;;;;;;;23.00;22.25;;;;;;;;5253684;28;8803;-75
2022/01/30 06:14:35;;;;;;;;;31.00;31.00;;;;;;;;5253189;28;8816;-75
2022/01/30 06:17:24;;;;;;;;;37.25;34.25;;;;;;;;5254484;28;9459;-74
2022/01/30 06:20:03;;;;;;;;;34.25;33.75;;;;;;;;5288073;28;8757;-72
2022/01/30 06:22:53;;;;;;;;;57.75;46.00;;;;;;;;5288370;28;8777;-71
2022/01/30 06:25:42;;;;;;;;;24.50;23.50;;;;;;;;5270053;28;8787;-73
2022/01/30 06:28:32;;;;;;;;;39.50;34.50;;;;;;;;5288075;28;8773;-74
2022/01/30 06:31:15;;;;;;;;;40.75;37.50;;;;;;;;5255483;28;8792;-75
2022/01/30 06:38:10;;;;;;;;;32.00;30.75;;;;;;;;5291738;28;8701;-75
2022/01/30 06:44:56;;;;;;;;;24.20;24.00;;;;;;;;5268382;28;8871;-75
2022/01/30 06:47:46;;;;;;;;;31.00;29.25;;;;;;;;5276835;28;8764;-75
2022/01/30 06:55:10;;;;;;;;;27.50;25.50;;;;;;;;5282435;28;8807;-74
2022/01/30 06:58:14;;;;;;;;;27.50;24.50;;;;;;;;5219016;28;8788;-76
2022/01/30 07:01:04;;;;;;;;;51.00;47.75;;;;;;;;5273336;28;8780;-76
2022/01/30 07:04:01;;;;;;;;;28.75;25.00;;;;;;;;5272389;28;8901;-76
2022/01/30 07:06:55;;;;;;;;;37.00;33.25;;;;;;;;5276476;28;8768;-75
2022/01/30 07:09:27;;;;;;;;;25.25;23.75;;;;;;;;5273280;28;8812;-76
2022/01/30 07:11:58;;;;;;;;;33.33;28.67;;;;;;;;5256427;28;8795;-76
2022/01/30 07:14:29;;;;;;;;;28.50;27.50;;;;;;;;5240330;28;8784;-76
2022/01/30 07:17:01;;;;;;;;;17.75;15.50;;;;;;;;5256247;28;8784;-77
2022/01/30 07:19:32;;;;;;;;;39.25;30.50;;;;;;;;5258642;28;8865;-77
2022/01/30 07:22:04;;;;;;;;;33.60;32.00;;;;;;;;5280260;28;8768;-76
2022/01/30 07:24:35;;;;;;;;;31.00;30.25;;;;;;;;5263231;28;8894;-77
2022/01/30 07:27:25;;;;;;;;;9.00;7.50;;;;;;;;5261539;28;8811;-77
2022/01/30 07:33:17;;;;;;;;;37.40;34.00;;;;;;;;5255921;28;8755;-78
2022/01/30 07:40:12;;;;;;;;;37.25;36.00;;;;;;;;5271180;28;8750;-77
2022/01/30 08:09:32;;;;;;;;;31.75;27.50;;;;;;;;5269089;28;8752;-74
2022/01/30 08:12:03;;;;;;;;;30.75;28.00;;;;;;;;5234817;28;9507;-76
2022/01/30 08:14:34;;;;;;;;;27.75;26.75;;;;;;;;5234789;28;8800;-75
2022/01/30 08:17:05;;;;;;;;;26.67;25.33;;;;;;;;5250978;28;8760;-75
2022/01/30 08:19:36;;;;;;;;;32.80;26.60;;;;;;;;5250975;28;11339;-76
2022/01/30 08:22:07;;;;;;;;;27.25;27.25;;;;;;;;5250994;28;8776;-77
2022/01/30 08:29:02;;;;;;;;;37.25;35.50;;;;;;;;5247759;28;8771;-75
2022/01/30 08:31:33;;;;;;;;;30.00;26.67;;;;;;;;5213392;28;8759;-79
2022/01/30 08:34:22;;;;;;;;;43.50;41.75;;;;;;;;5248396;28;9478;-78
2022/01/30 08:36:53;;;;;;;;;65.33;54.33;;;;;;;;5229780;28;8866;-76
2022/01/30 08:39:24;;;;;;;;;54.00;47.25;;;;;;;;5196924;28;8805;-69
2022/01/30 08:42:14;;;;;;;;;43.25;37.50;;;;;;;;5232212;28;8776;-81
2022/01/30 08:44:45;;;;;;;;;67.67;54.33;;;;;;;;5196336;28;8889;-75
2022/01/30 08:47:15;;;;;;;;;42.33;40.67;;;;;;;;5212908;28;9491;-74
2022/01/30 08:50:05;;;;;;;;;33.75;33.75;;;;;;;;5255833;28;8890;-75
2022/01/30 08:52:36;;;;;;;;;33.50;33.50;;;;;;;;5250081;28;8795;-73
2022/01/30 08:55:08;;;;;;;;;34.00;33.75;;;;;;;;5250177;28;8807;-76
2022/01/30 08:57:40;;;;;;;;;42.75;41.00;;;;;;;;5266828;28;8789;-75
2022/01/30 09:00:12;;;;;;;;;50.25;47.50;;;;;;;;5266846;28;8768;-76
2022/01/30 09:02:43;;;;;;;;;42.75;41.25;;;;;;;;5266765;28;8799;-72
2022/01/30 09:05:33;;;;;;;;;40.75;38.25;;;;;;;;5268253;28;9529;-75
2022/01/30 09:08:22;;;;;;;;;35.50;32.75;;;;;;;;5267060;28;8776;-71
2022/01/30 09:10:54;;;;;;;;;46.33;37.67;;;;;;;;5249813;28;8972;-75
2022/01/30 09:13:25;;;;;;;;;45.75;41.50;;;;;;;;5266621;28;8860;-79
2022/01/30 09:16:05;;;;;;;;;43.00;40.67;;;;;;;;5266563;28;8796;-75
2022/01/30 09:18:38;;;;;;;;;28.00;27.60;;;;;;;;5267333;28;11495;-78
2022/01/30 09:21:08;;;;;;;;;40.00;35.80;;;;;;;;5249621;28;8784;-78
2022/01/30 09:23:39;;;;;;;;;32.00;32.00;;;;;;;;5249656;28;8796;-78
2022/01/30 09:26:10;;;;;;;;;37.00;35.50;;;;;;;;5249580;28;8783;-79
2022/01/30 09:28:41;;;;;;;;;27.67;27.33;;;;;;;;5249790;28;8791;-77
2022/01/30 09:31:12;;;;;;;;;38.33;33.00;;;;;;;;5249496;28;8785;-77
2022/01/30 09:33:43;;;;;;;;;31.25;30.25;;;;;;;;5266450;28;9502;-76
2022/01/30 09:36:14;;;;;;;;;42.33;39.67;;;;;;;;5266538;28;8768;-76
2022/01/30 09:38:45;;;;;;;;;47.40;40.80;;;;;;;;5249322;28;8828;-78
2022/01/30 09:41:16;;;;;;;;;38.50;38.00;;;;;;;;5265988;28;8781;-76
2022/01/30 09:48:10;;;;;;;;;39.40;38.20;;;;;;;;5271604;28;8712;-77
2022/01/30 09:50:41;;;;;;;;;27.60;27.60;;;;;;;;5266093;28;8816;-75
2022/01/30 09:53:12;;;;;;;;;41.80;41.80;;;;;;;;5265649;28;8776;-77
2022/01/30 09:55:43;;;;;;;;;45.00;43.00;;;;;;;;5265553;28;8777;-77
2022/01/30 10:02:40;;;;;;;;;27.75;27.25;;;;;;;;5266577;28;8745;-77
2022/01/30 10:09:45;;;;;;;;;37.20;32.20;;;;;;;;5267332;28;8776;-74
2022/01/30 10:12:19;;;;;;;;;23.80;23.80;;;;;;;;5268619;28;8800;-69
2022/01/30 10:14:50;;;;;;;;;41.60;35.00;;;;;;;;5270076;28;8784;-76
2022/01/30 10:17:25;;;;;;;;;40.75;38.25;;;;;;;;5271406;28;8780;-76
2022/01/30 10:20:16;;;;;;;;;38.00;35.50;;;;;;;;5277189;28;8784;-77
2022/01/30 10:22:50;;;;;;;;;32.00;29.40;;;;;;;;5281492;28;8849;-79
2022/01/30 10:25:22;;;;;;;;;20.20;19.00;;;;;;;;5271979;28;8849;-78
2022/01/30 10:28:13;;;;;;;;;38.80;34.20;;;;;;;;5253198;28;8857;-78
2022/01/30 10:30:46;;;;;;;;;32.40;29.80;;;;;;;;5271523;28;8821;-78
2022/01/30 10:37:43;;;;;;;;;30.60;30.60;;;;;;;;5270829;28;8720;-78
2022/01/30 10:40:23;;;;;;;;;33.20;27.00;;;;;;;;5271327;28;8788;-79
2022/01/30 10:42:54;;;;;;;;;35.80;34.40;;;;;;;;5269073;28;8789;-77
2022/01/30 10:45:28;;;;;;;;;38.50;37.75;;;;;;;;5253274;28;8807;-78
2022/01/30 10:48:20;;;;;;;;;38.20;36.60;;;;;;;;5269916;28;11498;-79
2022/01/30 10:50:52;;;;;;;;;43.40;37.80;;;;;;;;5236131;28;8889;-76
2022/01/30 10:53:24;;;;;;;;;38.60;36.20;;;;;;;;5252699;28;8792;-77
2022/01/30 10:55:55;;;;;;;;;30.80;28.20;;;;;;;;5286348;28;8800;-76
2022/01/30 10:58:26;;;;;;;;;37.75;35.75;;;;;;;;5269776;28;8784;-77
2022/01/30 11:00:59;;;;;;;;;39.50;37.50;;;;;;;;5269178;28;8780;-75
2022/01/30 11:03:50;;;;;;;;;52.50;47.75;;;;;;;;5269486;28;8895;-82
2022/01/30 11:06:21;;;;;;;;;45.60;42.20;;;;;;;;5253119;28;8826;-81
2022/01/30 11:08:54;;;;;;;;;48.20;45.20;;;;;;;;5288548;28;8810;-80
2022/01/30 11:15:54;;;;;;;;;57.00;46.00;;;;;;;;5291255;28;8726;-80
2022/01/30 11:18:25;;;;;;;;;65.75;51.00;;;;;;;;5273439;28;8790;-80
2022/01/30 11:20:56;;;;;;;;;62.33;50.67;;;;;;;;5289323;28;8778;-81
2022/01/30 11:23:46;;;;;;;;;46.40;43.00;;;;;;;;5285578;27;8777;-80
2022/01/30 11:26:18;;;;;;;;;40.40;34.80;;;;;;;;5280516;28;8812;-80
2022/01/30 11:28:49;;;;;;;;;33.20;32.00;;;;;;;;5269752;28;8838;-79
2022/01/30 11:35:44;;;;;;;;;45.00;38.20;;;;;;;;5269954;28;8828;-81
2022/01/30 11:38:15;;;;;;;;;28.60;28.20;;;;;;;;5252072;28;9491;-76
2022/01/30 11:41:08;;;;;;;;;45.20;40.60;;;;;;;;5268210;28;8788;-77
2022/01/30 11:43:40;;;;;;;;;45.00;43.60;;;;;;;;5251510;28;8769;-76
2022/01/30 11:46:12;;;;;;;;;76.75;59.25;;;;;;;;5250763;28;8799;-79
2022/01/30 11:49:03;;;;;;;;;42.40;37.20;;;;;;;;5250898;28;8784;-77
2022/01/30 11:54:57;;;;;;;;;40.00;39.20;;;;;;;;5269212;28;8927;-81
2022/01/30 12:01:51;;;;;;;;;37.00;33.00;;;;;;;;5270038;28;8776;-80
2022/01/30 12:04:25;;;;;;;;;42.25;40.00;;;;;;;;5252186;28;8852;-81
2022/01/30 12:06:56;;;;;;;;;33.00;30.00;;;;;;;;5269505;28;11502;-82
2022/01/30 12:09:29;;;;;;;;;31.75;31.75;;;;;;;;5269093;28;8889;-82
2022/01/30 12:12:03;;;;;;;;;31.00;29.60;;;;;;;;5234053;28;10607;-82
2022/01/30 12:14:42;;;;;;;;;47.20;44.40;;;;;;;;5252301;28;8780;-81
2022/01/30 12:21:35;;;;;;;;;23.20;23.20;;;;;;;;5270827;28;8744;-82
2022/01/30 12:24:25;;;;;;;;;32.50;30.25;;;;;;;;5270271;28;8784;-79
2022/01/30 12:27:15;;;;;;;;;35.40;34.40;;;;;;;;5270066;28;8808;-80
2022/01/30 12:29:50;;;;;;;;;68.33;53.67;;;;;;;;5236238;28;8832;-82
2022/01/30 12:32:24;;;;;;;;;74.00;55.75;;;;;;;;5269635;28;8850;-81
2022/01/30 12:34:55;;;;;;;;;60.25;51.25;;;;;;;;5251292;28;8812;-81
2022/01/30 12:41:56;;;;;;;;;27.40;27.40;;;;;;;;5289506;28;9338;-77
2022/01/30 12:44:29;;;;;;;;;27.40;22.80;;;;;;;;5270965;28;8778;-77
2022/01/30 12:47:00;;;;;;;;;25.00;25.00;;;;;;;;5288549;28;8793;-79
2022/01/30 12:49:34;;;;;;;;;23.25;23.25;;;;;;;;5287869;28;8809;-78
2022/01/30 12:52:06;;;;;;;;;21.20;20.00;;;;;;;;5254386;28;8786;-78
2022/01/30 12:54:40;;;;;;;;;26.40;25.80;;;;;;;;5254084;28;8790;-78
2022/01/30 12:57:11;;;;;;;;;19.60;19.60;;;;;;;;5254241;28;8778;-78
2022/01/30 12:59:50;;;;;;;;;27.20;26.80;;;;;;;;5287324;28;8808;-78
2022/01/30 13:02:21;;;;;;;;;20.80;20.80;;;;;;;;5289136;28;8778;-79
2022/01/30 13:04:59;;;;;;;;;20.75;20.75;;;;;;;;5271343;28;9550;-79
2022/01/30 13:07:31;;;;;;;;;27.60;26.20;;;;;;;;5271675;28;12206;-80
2022/01/30 13:10:15;;;;;;;;;27.20;24.80;;;;;;;;5271170;28;8802;-81
2022/01/30 13:13:08;;;;;;;;;25.00;25.00;;;;;;;;5273391;28;8821;-80
2022/01/30 13:15:39;;;;;;;;;17.60;15.00;;;;;;;;5271047;28;8806;-80
2022/01/30 13:18:10;;;;;;;;;27.40;22.40;;;;;;;;5254226;28;8766;-81
2022/01/30 13:25:06;;;;;;;;;24.40;21.00;;;;;;;;5289038;28;8703;-80
2022/01/30 13:27:41;;;;;;;;;36.50;33.75;;;;;;;;5287854;28;8817;-81
2022/01/30 13:30:23;;;;;;;;;35.60;33.80;;;;;;;;5287190;28;8890;-81
2022/01/30 13:32:54;;;;;;;;;28.60;27.20;;;;;;;;5288092;28;8790;-79
2022/01/30 13:35:29;;;;;;;;;26.20;24.40;;;;;;;;5287540;28;8825;-80
2022/01/30 13:38:05;;;;;;;;;29.20;26.60;;;;;;;;5272194;28;9527;-80
2022/01/30 13:40:48;;;;;;;;;34.60;26.40;;;;;;;;5270675;28;8789;-80
2022/01/30 13:43:39;;;;;;;;;34.20;32.80;;;;;;;;5287618;28;8782;-80
2022/01/30 13:49:06;;;;;;;;;33.75;33.25;;;;;;;;5269660;28;8896;-81
2022/01/30 13:51:37;;;;;;;;;22.00;19.80;;;;;;;;5269404;28;8863;-80
2022/01/30 13:58:40;;;;;;;;;33.00;31.60;;;;;;;;5288575;28;8710;-78
2022/01/30 14:01:30;;;;;;;;;24.20;23.20;;;;;;;;5273784;28;8828;-81
2022/01/30 14:04:09;;;;;;;;;25.80;24.80;;;;;;;;5270976;28;8786;-81
2022/01/30 14:06:42;;;;;;;;;26.40;22.80;;;;;;;;5269682;28;8908;-80
2022/01/30 14:09:19;;;;;;;;;25.00;23.40;;;;;;;;5286808;28;8789;-82
2022/01/30 14:12:02;;;;;;;;;26.80;26.80;;;;;;;;5287316;28;8782;-82
2022/01/30 14:14:38;;;;;;;;;28.00;27.80;;;;;;;;5287854;28;8778;-79
2022/01/30 14:17:28;;;;;;;;;30.60;27.80;;;;;;;;5286652;28;8762;-80
2022/01/30 14:20:07;;;;;;;;;46.33;43.00;;;;;;;;5269936;28;9556;-80
2022/01/30 14:22:39;;;;;;;;;53.25;44.50;;;;;;;;5270461;28;12191;-78
2022/01/30 14:25:29;;;;;;;;;32.50;32.50;;;;;;;;5287505;28;8820;-79
2022/01/30 14:28:00;;;;;;;;;41.80;35.80;;;;;;;;5270559;28;9441;-78
2022/01/30 14:30:36;;;;;;;;;25.50;23.00;;;;;;;;5286662;28;8794;-80
2022/01/30 14:33:07;;;;;;;;;24.60;24.60;;;;;;;;5287943;28;9821;-79
2022/01/30 14:35:38;;;;;;;;;23.00;23.00;;;;;;;;5270081;28;8781;-79
2022/01/30 14:38:09;;;;;;;;;32.25;29.50;;;;;;;;5287361;28;11565;-80
2022/01/30 14:40:40;;;;;;;;;28.20;26.80;;;;;;;;5288913;27;8786;-82
2022/01/30 14:43:12;;;;;;;;;44.50;43.25;;;;;;;;5262333;28;8766;-81
2022/01/30 14:45:46;;;;;;;;;45.20;42.80;;;;;;;;5282772;28;8782;-82
2022/01/30 14:48:17;;;;;;;;;79.00;65.00;;;;;;;;5296792;28;8801;-80
2022/01/30 14:50:48;;;;;;;;;53.25;48.25;;;;;;;;5269895;28;9523;-82
2022/01/30 14:56:41;;;;;;;;;47.00;43.00;;;;;;;;5269012;28;8918;-81
2022/01/30 15:03:35;;;;;;;;;35.40;30.40;;;;;;;;5291801;28;11036;-81
2022/01/30 15:06:06;;;;;;;;;30.25;27.25;;;;;;;;5273539;28;8920;-80
2022/01/30 15:08:37;;;;;;;;;81.50;63.25;;;;;;;;5273782;28;8803;-83
2022/01/30 15:11:08;;;;;;;;;39.00;36.67;;;;;;;;5256950;28;8810;-82
2022/01/30 15:13:39;;;;;;;;;34.00;33.00;;;;;;;;5273932;28;8782;-82
2022/01/30 15:16:19;;;;;;;;;33.75;29.75;;;;;;;;5273504;28;10270;-82
2022/01/30 15:18:50;;;;;;;;;35.20;33.60;;;;;;;;5291903;28;11488;-82
2022/01/30 15:21:40;;;;;;;;;43.25;39.50;;;;;;;;5289716;28;8769;-82
2022/01/30 15:24:12;;;;;;;;;37.80;34.20;;;;;;;;5290342;28;8770;-81
2022/01/30 15:26:43;;;;;;;;;39.60;37.20;;;;;;;;5273084;28;8846;-81
2022/01/30 15:29:32;;;;;;;;;35.40;33.20;;;;;;;;5276419;28;8915;-81
2022/01/30 15:32:04;;;;;;;;;36.75;32.50;;;;;;;;5289979;28;8938;-80
2022/01/30 15:34:35;;;;;;;;;44.50;40.00;;;;;;;;5290991;28;9428;-80
2022/01/30 15:37:06;;;;;;;;;43.75;40.50;;;;;;;;5291425;28;8817;-80
2022/01/30 15:39:37;;;;;;;;;33.80;31.80;;;;;;;;5274608;28;9741;-79
2022/01/30 15:42:10;;;;;;;;;33.00;30.20;;;;;;;;5289562;28;9500;-79
2022/01/30 15:50:16;;;;;;;;;29.00;27.00;;;;;;;;5272766;28;8846;-79
2022/01/30 15:52:47;;;;;;;;;38.40;36.20;;;;;;;;5288987;28;8859;-80
2022/01/30 15:55:37;;;;;;;;;38.60;34.80;;;;;;;;5289402;28;8785;-80
2022/01/30 16:02:31;;;;;;;;;68.00;52.00;;;;;;;;5290554;28;8746;-76
2022/01/30 16:05:03;;;;;;;;;54.50;49.00;;;;;;;;5291207;28;8786;-80
2022/01/30 16:07:36;;;;;;;;;75.75;60.50;;;;;;;;5290897;28;8838;-81
2022/01/30 16:10:15;;;;;;;;;83.00;64.25;;;;;;;;5290178;28;8814;-80
2022/01/30 16:15:36;;;;;;;;;82.00;66.00;;;;;;;;5251910;28;8776;-81
2022/01/30 16:18:12;;;;;;;;;72.50;60.25;;;;;;;;5268081;28;11523;-77
2022/01/30 16:20:44;;;;;;;;;77.33;59.33;;;;;;;;5267681;28;8807;-79
2022/01/30 16:23:16;;;;;;;;;85.00;67.67;;;;;;;;5268008;28;8922;-79
2022/01/30 16:25:47;;;;;;;;;99.67;72.33;;;;;;;;5250698;28;9191;-77
2022/01/30 16:28:17;;;;;;;;;95.33;72.33;;;;;;;;5266692;28;9152;-79
2022/01/30 16:30:48;;;;;;;;;98.33;70.67;;;;;;;;5268097;28;8824;-78
2022/01/30 16:33:20;;;;;;;;;97.67;75.67;;;;;;;;5247901;28;9581;-80
2022/01/30 16:36:10;;;;;;;;;71.33;55.33;;;;;;;;5267460;28;8779;-81
2022/01/30 16:38:41;;;;;;;;;85.00;67.00;;;;;;;;5250101;28;9332;-79
2022/01/30 16:41:12;;;;;;;;;40.67;36.00;;;;;;;;5268076;28;8898;-80
2022/01/30 16:43:54;;;;;;;;;43.33;41.67;;;;;;;;5282951;28;11498;-79
2022/01/30 16:48:59;;;;;;;;;30.00;27.00;;;;;;;;5271934;28;8850;-83
2022/01/30 16:51:30;;;;;;;;;43.50;40.75;;;;;;;;5288788;28;8810;-80
2022/01/30 16:54:01;;;;;;;;;39.33;37.67;;;;;;;;5288993;28;8847;-83
2022/01/30 16:56:33;;;;;;;;;41.67;39.33;;;;;;;;5288619;28;11495;-82
2022/01/30 16:59:04;;;;;;;;;70.00;55.00;;;;;;;;5287945;28;9561;-81
2022/01/30 17:01:35;;;;;;;;;78.25;58.25;;;;;;;;5288745;28;8774;-80
2022/01/30 17:04:06;;;;;;;;;42.33;40.00;;;;;;;;5287893;28;9512;-80
2022/01/30 17:06:38;;;;;;;;;56.33;44.67;;;;;;;;5287287;28;11513;-80
2022/01/30 17:09:23;;;;;;;;;69.75;58.75;;;;;;;;5287359;28;8793;-81
2022/01/30 17:12:05;;;;;;;;;68.25;57.50;;;;;;;;5287893;28;8805;-81
2022/01/30 17:14:36;;;;;;;;;72.50;54.50;;;;;;;;5254189;28;8821;-79
2022/01/30 17:17:07;;;;;;;;;78.67;60.33;;;;;;;;5288750;28;8891;-81
2022/01/30 17:19:41;;;;;;;;;68.33;54.33;;;;;;;;5254204;28;8786;-79
2022/01/30 17:22:12;;;;;;;;;65.25;51.75;;;;;;;;5279367;27;8945;-81
2022/01/30 17:24:43;;;;;;;;;65.50;50.00;;;;;;;;5267423;28;8803;-81
2022/01/30 17:27:14;;;;;;;;;68.33;59.33;;;;;;;;5267511;28;8792;-82
2022/01/30 17:29:45;;;;;;;;;71.33;54.00;;;;;;;;5266329;28;8824;-80
2022/01/30 17:32:16;;;;;;;;;39.25;36.00;;;;;;;;5266266;28;9500;-82
2022/01/30 17:34:49;;;;;;;;;57.75;48.75;;;;;;;;5249946;28;9614;-83
2022/01/30 17:37:39;;;;;;;;;35.80;34.00;;;;;;;;5266885;28;8877;-83
2022/01/30 17:40:21;;;;;;;;;42.25;40.25;;;;;;;;5266786;28;8780;-82
2022/01/30 17:42:52;;;;;;;;;33.80;33.80;;;;;;;;5250276;28;8901;-80
2022/01/30 17:45:26;;;;;;;;;36.80;34.00;;;;;;;;5269636;27;8795;-78
2022/01/30 17:47:59;;;;;;;;;39.80;35.60;;;;;;;;5291567;27;8787;-81
2022/01/30 17:50:30;;;;;;;;;33.40;33.20;;;;;;;;5270788;28;8813;-80
2022/01/30 17:53:01;;;;;;;;;36.00;33.50;;;;;;;;5250329;28;8784;-80
2022/01/30 17:55:32;;;;;;;;;29.75;29.00;;;;;;;;5288120;27;8868;-79
2022/01/30 17:58:05;;;;;;;;;48.20;43.60;;;;;;;;5266780;28;8792;-82
2022/01/30 18:00:36;;;;;;;;;61.00;49.00;;;;;;;;5267819;28;8804;-81
2022/01/30 18:03:07;;;;;;;;;33.33;28.33;;;;;;;;5270509;28;8784;-79
2022/01/30 18:05:40;;;;;;;;;74.67;61.33;;;;;;;;5273533;28;9463;-81
2022/01/30 18:08:43;;;;;;;;;71.00;58.50;;;;;;;;5264031;28;11512;-82
2022/01/30 18:11:15;;;;;;;;;81.50;65.75;;;;;;;;5262919;28;8812;-81
2022/01/30 18:14:05;;;;;;;;;91.50;69.50;;;;;;;;5266657;28;9534;-83
2022/01/30 18:16:39;;;;;;;;;86.25;67.50;;;;;;;;5283560;28;8819;-81
2022/01/30 18:19:10;;;;;;;;;120.00;93.00;;;;;;;;5261359;28;8785;-81
2022/01/30 18:21:40;;;;;;;;;114.67;85.67;;;;;;;;5316140;27;9723;-79
2022/01/30 18:24:14;;;;;;;;;81.67;65.33;;;;;;;;5277810;28;8808;-83
2022/01/30 18:26:45;;;;;;;;;76.75;54.75;;;;;;;;5304713;27;8794;-81